sensor_id;sensor_type;location;lat;lon;timestamp;P1;durP1;ratioP1;P2;durP2;ratioP2
10910;SDS011;5508;49.150;11.030;2023-02-21T00:01:57;4.13;;;2.40;;
10910;SDS011;5508;49.150;11.030;2023-02-21T00:05:16;5.43;;;2.53;;
10910;SDS011;5508;49.150;11.030;2023-02-21T00:08:35;4.50;;;2.53;;
10910;SDS011;5508;49.150;11.030;2023-02-21T00:11:55;9.13;;;3.20;;
10910;SDS011;5508;49.150;11.030;2023-02-21T00:15:14;6.03;;;3.23;;
10910;SDS011;5508;49.150;11.030;2023-02-21T00:18:33;6.07;;;3.13;;
10910;SDS011;5508;49.150;11.030;2023-02-21T00:21:53;5.80;;;2.60;;
10910;SDS011;5508;49.150;11.030;2023-02-21T00:25:12;3.10;;;2.43;;
10910;SDS011;5508;49.150;11.030;2023-02-21T00:28:31;5.63;;;3.07;;
10910;SDS011;5508;49.150;11.030;2023-02-21T00:31:51;6.87;;;3.43;;
10910;SDS011;5508;49.150;11.030;2023-02-21T00:35:11;8.90;;;3.23;;
10910;SDS011;5508;49.150;11.030;2023-02-21T00:38:30;10.30;;;3.47;;
10910;SDS011;5508;49.150;11.030;2023-02-21T00:41:49;6.60;;;3.30;;
10910;SDS011;5508;49.150;11.030;2023-02-21T00:45:09;6.30;;;3.27;;
10910;SDS011;5508;49.150;11.030;2023-02-21T00:48:28;4.03;;;3.03;;
10910;SDS011;5508;49.150;11.030;2023-02-21T00:51:47;6.83;;;3.50;;
10910;SDS011;5508;49.150;11.030;2023-02-21T00:55:07;6.00;;;3.30;;
10910;SDS011;5508;49.150;11.030;2023-02-21T00:58:26;4.97;;;3.30;;
10910;SDS011;5508;49.150;11.030;2023-02-21T01:01:45;5.93;;;3.30;;
10910;SDS011;5508;49.150;11.030;2023-02-21T01:05:04;6.07;;;3.67;;
10910;SDS011;5508;49.150;11.030;2023-02-21T01:08:24;5.57;;;3.30;;
10910;SDS011;5508;49.150;11.030;2023-02-21T01:11:43;9.37;;;3.43;;
10910;SDS011;5508;49.150;11.030;2023-02-21T01:15:02;5.40;;;3.37;;
10910;SDS011;5508;49.150;11.030;2023-02-21T01:18:21;7.67;;;3.43;;
10910;SDS011;5508;49.150;11.030;2023-02-21T01:21:40;9.93;;;3.27;;
10910;SDS011;5508;49.150;11.030;2023-02-21T01:25:00;5.40;;;3.50;;
10910;SDS011;5508;49.150;11.030;2023-02-21T01:28:19;6.27;;;3.27;;
10910;SDS011;5508;49.150;11.030;2023-02-21T01:31:38;6.60;;;3.03;;
10910;SDS011;5508;49.150;11.030;2023-02-21T01:34:57;5.73;;;3.17;;
10910;SDS011;5508;49.150;11.030;2023-02-21T01:38:16;6.60;;;3.30;;
10910;SDS011;5508;49.150;11.030;2023-02-21T01:41:35;5.87;;;3.17;;
10910;SDS011;5508;49.150;11.030;2023-02-21T01:48:46;7.10;;;3.00;;
10910;SDS011;5508;49.150;11.030;2023-02-21T01:52:08;6.33;;;2.90;;
10910;SDS011;5508;49.150;11.030;2023-02-21T01:55:27;11.10;;;3.90;;
10910;SDS011;5508;49.150;11.030;2023-02-21T01:58:47;5.90;;;3.70;;
10910;SDS011;5508;49.150;11.030;2023-02-21T02:02:20;5.87;;;4.03;;
10910;SDS011;5508;49.150;11.030;2023-02-21T02:06:00;8.63;;;3.27;;
10910;SDS011;5508;49.150;11.030;2023-02-21T02:09:22;6.17;;;3.60;;
10910;SDS011;5508;49.150;11.030;2023-02-21T02:15:58;8.67;;;3.50;;
10910;SDS011;5508;49.150;11.030;2023-02-21T02:29:26;7.50;;;3.87;;
10910;SDS011;5508;49.150;11.030;2023-02-21T02:36:49;7.73;;;4.03;;
10910;SDS011;5508;49.150;11.030;2023-02-21T02:39:47;7.07;;;2.93;;
10910;SDS011;5508;49.150;11.030;2023-02-21T02:46:29;8.03;;;3.50;;
10910;SDS011;5508;49.150;11.030;2023-02-21T02:49:33;9.13;;;3.23;;
10910;SDS011;5508;49.150;11.030;2023-02-21T02:52:37;5.97;;;2.97;;
10910;SDS011;5508;49.150;11.030;2023-02-21T02:55:50;8.93;;;3.37;;
10910;SDS011;5508;49.150;11.030;2023-02-21T02:58:59;8.10;;;2.93;;
10910;SDS011;5508;49.150;11.030;2023-02-21T03:02:12;5.33;;;2.90;;
10910;SDS011;5508;49.150;11.030;2023-02-21T03:15:56;4.60;;;3.20;;
10910;SDS011;5508;49.150;11.030;2023-02-21T03:19:24;5.03;;;3.57;;
10910;SDS011;5508;49.150;11.030;2023-02-21T03:22:28;6.30;;;3.40;;
10910;SDS011;5508;49.150;11.030;2023-02-21T03:25:30;3.80;;;3.00;;
10910;SDS011;5508;49.150;11.030;2023-02-21T03:28:32;8.03;;;3.37;;
10910;SDS011;5508;49.150;11.030;2023-02-21T03:31:43;6.67;;;4.17;;
10910;SDS011;5508;49.150;11.030;2023-02-21T03:34:46;6.57;;;3.50;;
10910;SDS011;5508;49.150;11.030;2023-02-21T03:37:48;5.40;;;3.63;;
10910;SDS011;5508;49.150;11.030;2023-02-21T03:40:53;5.93;;;3.40;;
10910;SDS011;5508;49.150;11.030;2023-02-21T03:43:53;9.73;;;4.10;;
10910;SDS011;5508;49.150;11.030;2023-02-21T03:46:54;7.07;;;3.87;;
10910;SDS011;5508;49.150;11.030;2023-02-21T03:49:55;6.13;;;3.40;;
10910;SDS011;5508;49.150;11.030;2023-02-21T03:52:55;7.33;;;3.57;;
10910;SDS011;5508;49.150;11.030;2023-02-21T03:55:56;5.20;;;3.40;;
10910;SDS011;5508;49.150;11.030;2023-02-21T03:58:56;10.97;;;4.10;;
10910;SDS011;5508;49.150;11.030;2023-02-21T04:01:57;7.20;;;3.83;;
10910;SDS011;5508;49.150;11.030;2023-02-21T04:04:58;7.60;;;3.60;;
10910;SDS011;5508;49.150;11.030;2023-02-21T04:07:59;8.20;;;3.87;;
10910;SDS011;5508;49.150;11.030;2023-02-21T04:11:00;7.03;;;3.43;;
10910;SDS011;5508;49.150;11.030;2023-02-21T04:14:00;7.60;;;3.67;;
10910;SDS011;5508;49.150;11.030;2023-02-21T04:17:01;6.10;;;3.40;;
10910;SDS011;5508;49.150;11.030;2023-02-21T04:20:01;6.23;;;3.77;;
10910;SDS011;5508;49.150;11.030;2023-02-21T04:23:02;7.90;;;3.70;;
10910;SDS011;5508;49.150;11.030;2023-02-21T04:26:03;8.23;;;3.77;;
10910;SDS011;5508;49.150;11.030;2023-02-21T04:29:04;5.60;;;3.23;;
10910;SDS011;5508;49.150;11.030;2023-02-21T04:32:05;6.30;;;4.60;;
10910;SDS011;5508;49.150;11.030;2023-02-21T04:35:05;6.53;;;3.60;;
10910;SDS011;5508;49.150;11.030;2023-02-21T04:38:06;7.47;;;4.00;;
10910;SDS011;5508;49.150;11.030;2023-02-21T04:41:06;5.53;;;3.37;;
10910;SDS011;5508;49.150;11.030;2023-02-21T04:44:07;5.83;;;4.23;;
10910;SDS011;5508;49.150;11.030;2023-02-21T04:47:09;4.20;;;3.10;;
10910;SDS011;5508;49.150;11.030;2023-02-21T04:50:09;3.90;;;3.30;;
10910;SDS011;5508;49.150;11.030;2023-02-21T04:53:10;8.20;;;4.27;;
10910;SDS011;5508;49.150;11.030;2023-02-21T04:56:10;4.47;;;3.33;;
10910;SDS011;5508;49.150;11.030;2023-02-21T04:59:11;9.07;;;4.23;;
10910;SDS011;5508;49.150;11.030;2023-02-21T05:02:12;7.27;;;3.73;;
10910;SDS011;5508;49.150;11.030;2023-02-21T05:05:13;4.67;;;3.33;;
10910;SDS011;5508;49.150;11.030;2023-02-21T05:08:14;8.23;;;3.80;;
10910;SDS011;5508;49.150;11.030;2023-02-21T05:11:15;6.47;;;3.67;;
10910;SDS011;5508;49.150;11.030;2023-02-21T05:14:16;5.53;;;3.17;;
10910;SDS011;5508;49.150;11.030;2023-02-21T05:17:17;6.93;;;3.60;;
10910;SDS011;5508;49.150;11.030;2023-02-21T05:20:18;5.63;;;3.80;;
10910;SDS011;5508;49.150;11.030;2023-02-21T05:23:19;13.53;;;4.30;;
10910;SDS011;5508;49.150;11.030;2023-02-21T05:26:34;7.37;;;4.67;;
10910;SDS011;5508;49.150;11.030;2023-02-21T05:29:36;7.73;;;4.33;;
10910;SDS011;5508;49.150;11.030;2023-02-21T05:32:37;6.23;;;4.77;;
10910;SDS011;5508;49.150;11.030;2023-02-21T05:35:38;7.50;;;4.70;;
10910;SDS011;5508;49.150;11.030;2023-02-21T05:38:45;9.83;;;6.00;;
10910;SDS011;5508;49.150;11.030;2023-02-21T05:41:50;9.03;;;5.30;;
10910;SDS011;5508;49.150;11.030;2023-02-21T05:44:51;10.33;;;5.87;;
10910;SDS011;5508;49.150;11.030;2023-02-21T05:47:51;9.53;;;5.20;;
10910;SDS011;5508;49.150;11.030;2023-02-21T05:50:55;10.70;;;6.03;;
10910;SDS011;5508;49.150;11.030;2023-02-21T05:53:55;9.23;;;5.83;;
10910;SDS011;5508;49.150;11.030;2023-02-21T05:56:56;10.70;;;6.23;;
10910;SDS011;5508;49.150;11.030;2023-02-21T05:59:56;9.90;;;5.87;;
10910;SDS011;5508;49.150;11.030;2023-02-21T06:02:57;8.23;;;5.73;;
10910;SDS011;5508;49.150;11.030;2023-02-21T06:05:58;9.77;;;6.50;;
10910;SDS011;5508;49.150;11.030;2023-02-21T06:08:59;13.33;;;9.07;;
10910;SDS011;5508;49.150;11.030;2023-02-21T06:12:00;9.77;;;6.40;;
10910;SDS011;5508;49.150;11.030;2023-02-21T06:15:01;12.60;;;7.97;;
10910;SDS011;5508;49.150;11.030;2023-02-21T06:18:06;8.97;;;6.40;;
10910;SDS011;5508;49.150;11.030;2023-02-21T06:21:07;13.50;;;9.67;;
10910;SDS011;5508;49.150;11.030;2023-02-21T06:24:08;16.10;;;10.20;;
10910;SDS011;5508;49.150;11.030;2023-02-21T06:27:09;8.07;;;5.57;;
10910;SDS011;5508;49.150;11.030;2023-02-21T06:30:10;10.10;;;6.43;;
10910;SDS011;5508;49.150;11.030;2023-02-21T06:33:11;7.70;;;5.93;;
10910;SDS011;5508;49.150;11.030;2023-02-21T06:36:14;10.60;;;6.47;;
10910;SDS011;5508;49.150;11.030;2023-02-21T06:39:20;8.30;;;5.83;;
10910;SDS011;5508;49.150;11.030;2023-02-21T06:42:21;11.00;;;5.57;;
10910;SDS011;5508;49.150;11.030;2023-02-21T06:45:22;9.07;;;5.17;;
10910;SDS011;5508;49.150;11.030;2023-02-21T06:48:22;10.00;;;5.70;;
10910;SDS011;5508;49.150;11.030;2023-02-21T06:51:23;9.60;;;5.67;;
10910;SDS011;5508;49.150;11.030;2023-02-21T06:54:28;11.87;;;6.80;;
10910;SDS011;5508;49.150;11.030;2023-02-21T06:57:29;10.13;;;6.77;;
10910;SDS011;5508;49.150;11.030;2023-02-21T07:00:29;10.33;;;6.63;;
10910;SDS011;5508;49.150;11.030;2023-02-21T07:03:30;10.37;;;8.00;;
10910;SDS011;5508;49.150;11.030;2023-02-21T07:06:30;9.07;;;6.90;;
10910;SDS011;5508;49.150;11.030;2023-02-21T07:09:32;9.27;;;5.77;;
10910;SDS011;5508;49.150;11.030;2023-02-21T07:12:32;12.53;;;6.87;;
10910;SDS011;5508;49.150;11.030;2023-02-21T07:15:33;11.97;;;8.50;;
10910;SDS011;5508;49.150;11.030;2023-02-21T07:18:34;10.53;;;7.00;;
10910;SDS011;5508;49.150;11.030;2023-02-21T07:21:34;9.90;;;6.67;;
10910;SDS011;5508;49.150;11.030;2023-02-21T07:24:35;8.90;;;6.07;;
10910;SDS011;5508;49.150;11.030;2023-02-21T07:27:36;10.13;;;6.07;;
10910;SDS011;5508;49.150;11.030;2023-02-21T07:30:36;9.90;;;6.20;;
10910;SDS011;5508;49.150;11.030;2023-02-21T07:33:37;8.53;;;5.90;;
10910;SDS011;5508;49.150;11.030;2023-02-21T07:36:38;7.93;;;6.07;;
10910;SDS011;5508;49.150;11.030;2023-02-21T07:39:38;8.03;;;5.50;;
10910;SDS011;5508;49.150;11.030;2023-02-21T07:42:40;10.43;;;5.83;;
10910;SDS011;5508;49.150;11.030;2023-02-21T07:45:42;7.83;;;4.80;;
10910;SDS011;5508;49.150;11.030;2023-02-21T07:48:43;6.43;;;5.10;;
10910;SDS011;5508;49.150;11.030;2023-02-21T07:51:44;6.40;;;4.60;;
10910;SDS011;5508;49.150;11.030;2023-02-21T07:54:44;9.90;;;4.83;;
10910;SDS011;5508;49.150;11.030;2023-02-21T07:57:45;8.20;;;4.93;;
10910;SDS011;5508;49.150;11.030;2023-02-21T08:00:45;6.27;;;4.60;;
10910;SDS011;5508;49.150;11.030;2023-02-21T08:03:46;7.27;;;4.73;;
10910;SDS011;5508;49.150;11.030;2023-02-21T08:06:47;13.03;;;4.60;;
10910;SDS011;5508;49.150;11.030;2023-02-21T08:09:48;10.90;;;5.23;;
10910;SDS011;5508;49.150;11.030;2023-02-21T08:12:50;10.33;;;5.37;;
10910;SDS011;5508;49.150;11.030;2023-02-21T08:15:51;9.87;;;7.17;;
10910;SDS011;5508;49.150;11.030;2023-02-21T08:18:51;12.20;;;6.30;;
10910;SDS011;5508;49.150;11.030;2023-02-21T08:21:52;12.87;;;6.37;;
10910;SDS011;5508;49.150;11.030;2023-02-21T08:24:53;11.10;;;6.63;;
10910;SDS011;5508;49.150;11.030;2023-02-21T08:27:53;10.60;;;6.83;;
10910;SDS011;5508;49.150;11.030;2023-02-21T08:30:54;11.40;;;6.03;;
10910;SDS011;5508;49.150;11.030;2023-02-21T08:33:54;10.07;;;6.27;;
10910;SDS011;5508;49.150;11.030;2023-02-21T08:36:55;13.80;;;9.10;;
10910;SDS011;5508;49.150;11.030;2023-02-21T08:39:56;12.23;;;7.87;;
10910;SDS011;5508;49.150;11.030;2023-02-21T08:42:57;8.00;;;4.67;;
10910;SDS011;5508;49.150;11.030;2023-02-21T08:45:59;6.00;;;4.93;;
10910;SDS011;5508;49.150;11.030;2023-02-21T08:49:00;8.43;;;4.83;;
10910;SDS011;5508;49.150;11.030;2023-02-21T08:52:03;9.97;;;5.23;;
10910;SDS011;5508;49.150;11.030;2023-02-21T08:55:04;10.87;;;5.17;;
10910;SDS011;5508;49.150;11.030;2023-02-21T08:58:05;7.83;;;4.57;;
10910;SDS011;5508;49.150;11.030;2023-02-21T09:01:06;9.80;;;5.23;;
10910;SDS011;5508;49.150;11.030;2023-02-21T09:04:06;6.50;;;4.83;;
10910;SDS011;5508;49.150;11.030;2023-02-21T09:07:07;6.47;;;4.97;;
10910;SDS011;5508;49.150;11.030;2023-02-21T09:10:08;7.83;;;4.73;;
10910;SDS011;5508;49.150;11.030;2023-02-21T09:13:10;10.17;;;5.40;;
10910;SDS011;5508;49.150;11.030;2023-02-21T09:16:10;5.80;;;4.33;;
10910;SDS011;5508;49.150;11.030;2023-02-21T09:19:11;8.37;;;5.17;;
10910;SDS011;5508;49.150;11.030;2023-02-21T09:22:12;7.70;;;5.20;;
10910;SDS011;5508;49.150;11.030;2023-02-21T09:25:13;9.13;;;4.93;;
10910;SDS011;5508;49.150;11.030;2023-02-21T09:28:16;8.20;;;4.57;;
10910;SDS011;5508;49.150;11.030;2023-02-21T09:31:17;8.20;;;5.30;;
10910;SDS011;5508;49.150;11.030;2023-02-21T09:34:18;7.40;;;5.07;;
10910;SDS011;5508;49.150;11.030;2023-02-21T09:37:19;6.63;;;5.20;;
10910;SDS011;5508;49.150;11.030;2023-02-21T09:46:49;10.43;;;6.13;;
10910;SDS011;5508;49.150;11.030;2023-02-21T09:49:59;6.73;;;4.70;;
10910;SDS011;5508;49.150;11.030;2023-02-21T09:53:03;8.43;;;5.10;;
10910;SDS011;5508;49.150;11.030;2023-02-21T09:56:20;7.93;;;4.77;;
10910;SDS011;5508;49.150;11.030;2023-02-21T09:59:30;11.03;;;5.70;;
10910;SDS011;5508;49.150;11.030;2023-02-21T10:02:36;9.63;;;5.70;;
10910;SDS011;5508;49.150;11.030;2023-02-21T10:09:22;7.37;;;5.37;;
10910;SDS011;5508;49.150;11.030;2023-02-21T10:22:21;7.37;;;4.73;;
10910;SDS011;5508;49.150;11.030;2023-02-21T10:25:27;5.20;;;4.20;;
10910;SDS011;5508;49.150;11.030;2023-02-21T10:28:29;8.07;;;4.60;;
10910;SDS011;5508;49.150;11.030;2023-02-21T10:34:35;6.70;;;4.53;;
10910;SDS011;5508;49.150;11.030;2023-02-21T10:37:37;7.57;;;4.40;;
10910;SDS011;5508;49.150;11.030;2023-02-21T10:43:46;7.67;;;3.93;;
10910;SDS011;5508;49.150;11.030;2023-02-21T10:46:57;4.90;;;4.00;;
10910;SDS011;5508;49.150;11.030;2023-02-21T10:53:47;6.13;;;3.80;;
10910;SDS011;5508;49.150;11.030;2023-02-21T10:56:48;5.57;;;4.13;;
10910;SDS011;5508;49.150;11.030;2023-02-21T10:59:51;4.23;;;3.40;;
10910;SDS011;5508;49.150;11.030;2023-02-21T11:02:54;6.37;;;3.20;;
10910;SDS011;5508;49.150;11.030;2023-02-21T11:05:56;6.73;;;3.53;;
10910;SDS011;5508;49.150;11.030;2023-02-21T11:08:57;5.10;;;3.90;;
10910;SDS011;5508;49.150;11.030;2023-02-21T11:12:00;5.70;;;3.43;;
10910;SDS011;5508;49.150;11.030;2023-02-21T11:15:14;6.43;;;4.23;;
10910;SDS011;5508;49.150;11.030;2023-02-21T11:18:24;5.67;;;4.67;;
10910;SDS011;5508;49.150;11.030;2023-02-21T11:21:24;7.30;;;4.30;;
10910;SDS011;5508;49.150;11.030;2023-02-21T11:24:25;4.57;;;3.67;;
10910;SDS011;5508;49.150;11.030;2023-02-21T11:27:26;4.50;;;3.40;;
10910;SDS011;5508;49.150;11.030;2023-02-21T11:30:31;4.80;;;3.87;;
10910;SDS011;5508;49.150;11.030;2023-02-21T11:33:40;5.90;;;3.77;;
10910;SDS011;5508;49.150;11.030;2023-02-21T11:36:47;6.47;;;4.27;;
10910;SDS011;5508;49.150;11.030;2023-02-21T11:39:51;4.27;;;3.23;;
10910;SDS011;5508;49.150;11.030;2023-02-21T11:43:37;5.30;;;3.80;;
10910;SDS011;5508;49.150;11.030;2023-02-21T11:46:38;4.67;;;3.73;;
10910;SDS011;5508;49.150;11.030;2023-02-21T11:57:24;8.60;;;4.70;;
10910;SDS011;5508;49.150;11.030;2023-02-21T12:00:28;5.70;;;4.00;;
10910;SDS011;5508;49.150;11.030;2023-02-21T12:29:40;16.17;;;14.77;;
10910;SDS011;5508;49.150;11.030;2023-02-21T12:32:40;5.00;;;4.13;;
10910;SDS011;5508;49.150;11.030;2023-02-21T12:42:43;4.97;;;3.57;;
10910;SDS011;5508;49.150;11.030;2023-02-21T12:49:19;8.23;;;6.23;;
10910;SDS011;5508;49.150;11.030;2023-02-21T12:52:37;6.43;;;5.33;;
10910;SDS011;5508;49.150;11.030;2023-02-21T12:55:50;21.97;;;13.23;;
10910;SDS011;5508;49.150;11.030;2023-02-21T12:58:58;5.70;;;3.83;;
10910;SDS011;5508;49.150;11.030;2023-02-21T13:02:11;4.13;;;3.57;;
10910;SDS011;5508;49.150;11.030;2023-02-21T13:05:30;4.93;;;2.97;;
10910;SDS011;5508;49.150;11.030;2023-02-21T13:08:43;3.43;;;3.10;;
10910;SDS011;5508;49.150;11.030;2023-02-21T13:15:21;3.20;;;2.73;;
10910;SDS011;5508;49.150;11.030;2023-02-21T13:18:31;4.07;;;2.70;;
10910;SDS011;5508;49.150;11.030;2023-02-21T13:31:06;3.97;;;3.40;;
10910;SDS011;5508;49.150;11.030;2023-02-21T13:34:18;5.20;;;2.73;;
10910;SDS011;5508;49.150;11.030;2023-02-21T13:37:25;5.20;;;3.50;;
10910;SDS011;5508;49.150;11.030;2023-02-21T13:40:32;5.03;;;2.93;;
10910;SDS011;5508;49.150;11.030;2023-02-21T13:43:50;3.40;;;2.47;;
10910;SDS011;5508;49.150;11.030;2023-02-21T14:02:28;2.30;;;2.10;;
10910;SDS011;5508;49.150;11.030;2023-02-21T14:08:49;5.00;;;2.90;;
10910;SDS011;5508;49.150;11.030;2023-02-21T14:11:57;4.43;;;2.77;;
10910;SDS011;5508;49.150;11.030;2023-02-21T14:15:06;4.77;;;2.73;;
10910;SDS011;5508;49.150;11.030;2023-02-21T14:21:46;3.47;;;2.70;;
10910;SDS011;5508;49.150;11.030;2023-02-21T14:24:50;5.33;;;2.87;;
10910;SDS011;5508;49.150;11.030;2023-02-21T14:28:24;3.87;;;2.77;;
10910;SDS011;5508;49.150;11.030;2023-02-21T14:38:45;2.57;;;2.37;;
10910;SDS011;5508;49.150;11.030;2023-02-21T14:45:22;6.63;;;6.03;;
10910;SDS011;5508;49.150;11.030;2023-02-21T14:51:52;7.07;;;4.43;;
10910;SDS011;5508;49.150;11.030;2023-02-21T15:05:41;3.10;;;2.60;;
10910;SDS011;5508;49.150;11.030;2023-02-21T15:08:49;3.90;;;2.30;;
10910;SDS011;5508;49.150;11.030;2023-02-21T15:11:51;2.70;;;2.50;;
10910;SDS011;5508;49.150;11.030;2023-02-21T15:14:52;3.20;;;2.77;;
10910;SDS011;5508;49.150;11.030;2023-02-21T15:17:55;4.07;;;2.53;;
10910;SDS011;5508;49.150;11.030;2023-02-21T15:24:17;10.60;;;7.30;;
10910;SDS011;5508;49.150;11.030;2023-02-21T15:27:18;4.63;;;3.70;;
10910;SDS011;5508;49.150;11.030;2023-02-21T15:30:20;5.03;;;2.50;;
10910;SDS011;5508;49.150;11.030;2023-02-21T15:33:22;4.20;;;3.10;;
10910;SDS011;5508;49.150;11.030;2023-02-21T15:36:25;3.30;;;2.97;;
10910;SDS011;5508;49.150;11.030;2023-02-21T15:39:31;3.63;;;2.70;;
10910;SDS011;5508;49.150;11.030;2023-02-21T15:42:34;2.97;;;2.57;;
10910;SDS011;5508;49.150;11.030;2023-02-21T15:45:45;4.17;;;3.77;;
10910;SDS011;5508;49.150;11.030;2023-02-21T15:48:48;4.50;;;2.87;;
10910;SDS011;5508;49.150;11.030;2023-02-21T15:51:49;7.23;;;4.83;;
10910;SDS011;5508;49.150;11.030;2023-02-21T15:54:50;4.43;;;4.03;;
10910;SDS011;5508;49.150;11.030;2023-02-21T16:01:22;3.73;;;2.80;;
10910;SDS011;5508;49.150;11.030;2023-02-21T16:04:23;5.27;;;3.87;;
10910;SDS011;5508;49.150;11.030;2023-02-21T16:07:35;7.67;;;4.60;;
10910;SDS011;5508;49.150;11.030;2023-02-21T16:10:39;17.37;;;9.53;;
10910;SDS011;5508;49.150;11.030;2023-02-21T16:13:40;7.00;;;4.23;;
10910;SDS011;5508;49.150;11.030;2023-02-21T16:16:41;6.60;;;3.70;;
10910;SDS011;5508;49.150;11.030;2023-02-21T16:19:46;3.17;;;2.00;;
10910;SDS011;5508;49.150;11.030;2023-02-21T16:23:11;2.30;;;1.93;;
10910;SDS011;5508;49.150;11.030;2023-02-21T16:26:29;7.33;;;3.93;;
10910;SDS011;5508;49.150;11.030;2023-02-21T16:29:30;13.60;;;4.37;;
10910;SDS011;5508;49.150;11.030;2023-02-21T16:32:31;4.63;;;3.27;;
10910;SDS011;5508;49.150;11.030;2023-02-21T16:35:34;7.77;;;6.97;;
10910;SDS011;5508;49.150;11.030;2023-02-21T16:38:35;4.03;;;3.63;;
10910;SDS011;5508;49.150;11.030;2023-02-21T16:41:35;12.57;;;6.60;;
10910;SDS011;5508;49.150;11.030;2023-02-21T16:44:36;15.03;;;7.10;;
10910;SDS011;5508;49.150;11.030;2023-02-21T16:47:37;16.20;;;7.50;;
10910;SDS011;5508;49.150;11.030;2023-02-21T16:50:38;5.27;;;3.50;;
10910;SDS011;5508;49.150;11.030;2023-02-21T16:53:39;7.60;;;4.07;;
10910;SDS011;5508;49.150;11.030;2023-02-21T16:56:41;5.67;;;4.10;;
10910;SDS011;5508;49.150;11.030;2023-02-21T16:59:42;5.67;;;3.17;;
10910;SDS011;5508;49.150;11.030;2023-02-21T17:02:43;7.63;;;2.23;;
10910;SDS011;5508;49.150;11.030;2023-02-21T17:05:43;8.57;;;2.10;;
10910;SDS011;5508;49.150;11.030;2023-02-21T17:08:45;4.20;;;2.37;;
10910;SDS011;5508;49.150;11.030;2023-02-21T17:11:45;2.60;;;2.17;;
10910;SDS011;5508;49.150;11.030;2023-02-21T17:14:46;4.43;;;3.73;;
10910;SDS011;5508;49.150;11.030;2023-02-21T17:17:46;2.80;;;1.90;;
10910;SDS011;5508;49.150;11.030;2023-02-21T17:20:47;2.53;;;1.70;;
10910;SDS011;5508;49.150;11.030;2023-02-21T17:23:48;5.90;;;2.00;;
10910;SDS011;5508;49.150;11.030;2023-02-21T17:26:50;6.40;;;1.90;;
10910;SDS011;5508;49.150;11.030;2023-02-21T17:29:52;8.33;;;5.87;;
10910;SDS011;5508;49.150;11.030;2023-02-21T17:32:53;15.40;;;10.47;;
10910;SDS011;5508;49.150;11.030;2023-02-21T17:35:53;7.87;;;6.30;;
10910;SDS011;5508;49.150;11.030;2023-02-21T17:38:54;5.13;;;3.70;;
10910;SDS011;5508;49.150;11.030;2023-02-21T17:41:56;3.10;;;2.80;;
10910;SDS011;5508;49.150;11.030;2023-02-21T17:44:56;4.50;;;2.93;;
10910;SDS011;5508;49.150;11.030;2023-02-21T17:47:59;2.67;;;2.27;;
10910;SDS011;5508;49.150;11.030;2023-02-21T17:50:59;9.03;;;4.53;;
10910;SDS011;5508;49.150;11.030;2023-02-21T17:54:00;8.10;;;5.67;;
10910;SDS011;5508;49.150;11.030;2023-02-21T17:57:01;10.93;;;4.60;;
10910;SDS011;5508;49.150;11.030;2023-02-21T18:00:05;4.23;;;2.37;;
10910;SDS011;5508;49.150;11.030;2023-02-21T18:03:08;3.90;;;2.97;;
10910;SDS011;5508;49.150;11.030;2023-02-21T18:06:09;4.80;;;2.73;;
10910;SDS011;5508;49.150;11.030;2023-02-21T18:09:09;3.43;;;2.43;;
10910;SDS011;5508;49.150;11.030;2023-02-21T18:12:10;7.43;;;4.57;;
10910;SDS011;5508;49.150;11.030;2023-02-21T18:15:11;11.63;;;7.60;;
10910;SDS011;5508;49.150;11.030;2023-02-21T18:18:13;8.93;;;6.83;;
10910;SDS011;5508;49.150;11.030;2023-02-21T18:21:14;7.13;;;4.30;;
10910;SDS011;5508;49.150;11.030;2023-02-21T18:24:15;4.47;;;3.00;;
10910;SDS011;5508;49.150;11.030;2023-02-21T18:27:17;4.10;;;3.23;;
10910;SDS011;5508;49.150;11.030;2023-02-21T18:30:19;18.97;;;15.07;;
10910;SDS011;5508;49.150;11.030;2023-02-21T18:33:22;14.00;;;10.70;;
10910;SDS011;5508;49.150;11.030;2023-02-21T18:36:23;6.77;;;4.90;;
10910;SDS011;5508;49.150;11.030;2023-02-21T18:39:25;3.23;;;2.20;;
10910;SDS011;5508;49.150;11.030;2023-02-21T18:42:26;3.10;;;2.50;;
10910;SDS011;5508;49.150;11.030;2023-02-21T18:45:26;4.83;;;3.60;;
10910;SDS011;5508;49.150;11.030;2023-02-21T18:48:27;6.33;;;4.87;;
10910;SDS011;5508;49.150;11.030;2023-02-21T18:51:28;5.67;;;4.30;;
10910;SDS011;5508;49.150;11.030;2023-02-21T18:54:28;5.63;;;3.60;;
10910;SDS011;5508;49.150;11.030;2023-02-21T18:57:29;4.73;;;3.90;;
10910;SDS011;5508;49.150;11.030;2023-02-21T19:00:30;13.37;;;12.07;;
10910;SDS011;5508;49.150;11.030;2023-02-21T19:03:32;16.90;;;15.20;;
10910;SDS011;5508;49.150;11.030;2023-02-21T19:06:33;12.80;;;11.07;;
10910;SDS011;5508;49.150;11.030;2023-02-21T19:09:34;8.87;;;7.97;;
10910;SDS011;5508;49.150;11.030;2023-02-21T19:12:34;8.40;;;5.80;;
10910;SDS011;5508;49.150;11.030;2023-02-21T19:15:35;4.40;;;3.80;;
10910;SDS011;5508;49.150;11.030;2023-02-21T19:18:36;6.37;;;3.70;;
10910;SDS011;5508;49.150;11.030;2023-02-21T19:21:36;3.40;;;3.10;;
10910;SDS011;5508;49.150;11.030;2023-02-21T19:24:37;5.57;;;3.57;;
10910;SDS011;5508;49.150;11.030;2023-02-21T19:27:37;5.03;;;3.37;;
10910;SDS011;5508;49.150;11.030;2023-02-21T19:30:38;7.00;;;6.13;;
10910;SDS011;5508;49.150;11.030;2023-02-21T19:33:39;9.07;;;5.53;;
10910;SDS011;5508;49.150;11.030;2023-02-21T19:36:39;14.97;;;8.77;;
10910;SDS011;5508;49.150;11.030;2023-02-21T19:39:40;12.90;;;8.53;;
10910;SDS011;5508;49.150;11.030;2023-02-21T19:42:41;14.17;;;9.17;;
10910;SDS011;5508;49.150;11.030;2023-02-21T19:45:41;12.13;;;8.00;;
10910;SDS011;5508;49.150;11.030;2023-02-21T19:48:43;12.67;;;8.43;;
10910;SDS011;5508;49.150;11.030;2023-02-21T19:51:44;10.30;;;7.57;;
10910;SDS011;5508;49.150;11.030;2023-02-21T19:54:47;11.57;;;7.47;;
10910;SDS011;5508;49.150;11.030;2023-02-21T19:57:47;7.90;;;6.83;;
10910;SDS011;5508;49.150;11.030;2023-02-21T20:00:48;15.03;;;10.80;;
10910;SDS011;5508;49.150;11.030;2023-02-21T20:03:49;64.27;;;39.67;;
10910;SDS011;5508;49.150;11.030;2023-02-21T20:06:50;109.10;;;66.20;;
10910;SDS011;5508;49.150;11.030;2023-02-21T20:09:50;87.60;;;64.27;;
10910;SDS011;5508;49.150;11.030;2023-02-21T20:12:52;56.90;;;49.87;;
10910;SDS011;5508;49.150;11.030;2023-02-21T20:15:56;23.80;;;21.33;;
10910;SDS011;5508;49.150;11.030;2023-02-21T20:18:57;25.63;;;22.80;;
10910;SDS011;5508;49.150;11.030;2023-02-21T20:21:57;28.57;;;25.57;;
10910;SDS011;5508;49.150;11.030;2023-02-21T20:24:58;24.40;;;21.73;;
10910;SDS011;5508;49.150;11.030;2023-02-21T20:28:00;20.23;;;18.13;;
10910;SDS011;5508;49.150;11.030;2023-02-21T20:31:02;22.10;;;19.37;;
10910;SDS011;5508;49.150;11.030;2023-02-21T20:34:03;17.80;;;16.03;;
10910;SDS011;5508;49.150;11.030;2023-02-21T20:37:05;7.83;;;6.10;;
10910;SDS011;5508;49.150;11.030;2023-02-21T20:40:06;7.50;;;5.40;;
10910;SDS011;5508;49.150;11.030;2023-02-21T20:43:09;9.97;;;6.00;;
10910;SDS011;5508;49.150;11.030;2023-02-21T20:46:11;7.80;;;4.30;;
10910;SDS011;5508;49.150;11.030;2023-02-21T20:49:11;5.13;;;4.40;;
10910;SDS011;5508;49.150;11.030;2023-02-21T20:52:13;6.90;;;3.67;;
10910;SDS011;5508;49.150;11.030;2023-02-21T20:55:15;9.43;;;7.23;;
10910;SDS011;5508;49.150;11.030;2023-02-21T20:58:18;12.13;;;9.50;;
10910;SDS011;5508;49.150;11.030;2023-02-21T21:01:20;8.00;;;7.20;;
10910;SDS011;5508;49.150;11.030;2023-02-21T21:04:22;6.43;;;5.83;;
10910;SDS011;5508;49.150;11.030;2023-02-21T21:07:28;5.60;;;4.90;;
10910;SDS011;5508;49.150;11.030;2023-02-21T21:10:28;6.30;;;5.40;;
10910;SDS011;5508;49.150;11.030;2023-02-21T21:13:29;4.43;;;3.97;;
10910;SDS011;5508;49.150;11.030;2023-02-21T21:16:29;7.50;;;4.63;;
10910;SDS011;5508;49.150;11.030;2023-02-21T21:19:32;5.60;;;4.20;;
10910;SDS011;5508;49.150;11.030;2023-02-21T21:22:33;5.13;;;3.73;;
10910;SDS011;5508;49.150;11.030;2023-02-21T21:25:35;7.50;;;3.80;;